sensor_id;sensor_type;location;lat;lon;timestamp;pressure;altitude;pressure_sealevel;temperature;humidity
41062;BME280;26812;42.662;23.352;2023-05-01T00:00:07;94874.59;;;13.08;62.14
41062;BME280;26812;42.662;23.352;2023-05-01T00:02:33;94821.16;;;12.60;62.31
41062;BME280;26812;42.662;23.352;2023-05-01T00:04:58;94886.50;;;12.95;63.21
41062;BME280;26812;42.662;23.352;2023-05-01T00:07:24;94883.97;;;13.11;62.50
41062;BME280;26812;42.662;23.352;2023-05-01T00:09:50;94887.22;;;12.83;63.74
41062;BME280;26812;42.662;23.352;2023-05-01T00:12:16;94886.66;;;12.78;63.78
41062;BME280;26812;42.662;23.352;2023-05-01T00:14:41;94886.59;;;12.65;64.39
41062;BME280;26812;42.662;23.352;2023-05-01T00:17:07;94896.78;;;12.81;64.55
41062;BME280;26812;42.662;23.352;2023-05-01T00:19:32;94892.28;;;13.05;63.13
41062;BME280;26812;42.662;23.352;2023-05-01T00:21:57;94892.63;;;13.04;62.58
41062;BME280;26812;42.662;23.352;2023-05-01T00:24:23;94882.03;;;12.78;63.94
41062;BME280;26812;42.662;23.352;2023-05-01T00:26:48;94879.69;;;13.10;62.58
41062;BME280;26812;42.662;23.352;2023-05-01T00:29:14;94898.28;;;13.32;62.48
41062;BME280;26812;42.662;23.352;2023-05-01T00:31:40;94900.78;;;13.16;63.67
41062;BME280;26812;42.662;23.352;2023-05-01T00:34:06;94878.16;;;12.88;64.13
41062;BME280;26812;42.662;23.352;2023-05-01T00:36:32;94882.09;;;12.69;64.31
41062;BME280;26812;42.662;23.352;2023-05-01T00:38:57;94884.34;;;12.47;65.27
41062;BME280;26812;42.662;23.352;2023-05-01T00:41:23;94873.81;;;12.33;65.72
41062;BME280;26812;42.662;23.352;2023-05-01T00:43:48;94901.00;;;12.49;65.97
41062;BME280;26812;42.662;23.352;2023-05-01T00:46:14;94897.81;;;12.55;66.09
41062;BME280;26812;42.662;23.352;2023-05-01T00:48:39;94889.34;;;12.36;66.15
41062;BME280;26812;42.662;23.352;2023-05-01T00:51:06;94901.69;;;12.66;66.09
41062;BME280;26812;42.662;23.352;2023-05-01T00:53:33;94909.53;;;12.80;65.19
41062;BME280;26812;42.662;23.352;2023-05-01T00:55:58;94895.94;;;12.47;66.15
41062;BME280;26812;42.662;23.352;2023-05-01T00:58:25;94908.56;;;12.64;66.21
41062;BME280;26812;42.662;23.352;2023-05-01T01:00:51;94908.53;;;12.85;64.99
41062;BME280;26812;42.662;23.352;2023-05-01T01:03:17;94899.75;;;12.46;66.00
41062;BME280;26812;42.662;23.352;2023-05-01T01:05:53;94917.28;;;12.40;66.11
41062;BME280;26812;42.662;23.352;2023-05-01T01:08:29;94913.66;;;12.36;66.23
41062;BME280;26812;42.662;23.352;2023-05-01T01:13:36;94901.75;;;12.07;67.15
41062;BME280;26812;42.662;23.352;2023-05-01T01:21:49;94932.19;;;12.46;66.59
41062;BME280;26812;42.662;23.352;2023-05-01T01:29:43;94932.41;;;12.62;65.47
41062;BME280;26812;42.662;23.352;2023-05-01T01:35:19;94940.09;;;12.51;66.56
41062;BME280;26812;42.662;23.352;2023-05-01T01:37:56;94920.97;;;12.35;66.27
41062;BME280;26812;42.662;23.352;2023-05-01T01:40:28;94933.69;;;12.35;67.09
41062;BME280;26812;42.662;23.352;2023-05-01T01:43:00;94928.47;;;12.30;66.61
41062;BME280;26812;42.662;23.352;2023-05-01T01:45:39;94936.59;;;12.51;66.48
41062;BME280;26812;42.662;23.352;2023-05-01T01:48:15;94927.03;;;12.03;67.74
41062;BME280;26812;42.662;23.352;2023-05-01T01:50:43;94917.03;;;12.03;67.94
41062;BME280;26812;42.662;23.352;2023-05-01T01:53:12;94932.66;;;12.19;67.13
41062;BME280;26812;42.662;23.352;2023-05-01T01:55:40;94934.03;;;12.04;68.16
41062;BME280;26812;42.662;23.352;2023-05-01T01:58:08;94909.50;;;11.71;69.24
41062;BME280;26812;42.662;23.352;2023-05-01T02:00:35;94907.34;;;12.02;68.10
41062;BME280;26812;42.662;23.352;2023-05-01T02:03:01;94925.97;;;11.95;68.60
41062;BME280;26812;42.662;23.352;2023-05-01T02:05:27;94899.28;;;11.47;69.26
41062;BME280;26812;42.662;23.352;2023-05-01T02:07:56;94925.47;;;11.29;71.07
41062;BME280;26812;42.662;23.352;2023-05-01T02:10:23;94921.41;;;11.14;71.81
41062;BME280;26812;42.662;23.352;2023-05-01T02:12:50;94933.09;;;11.36;71.95
41062;BME280;26812;42.662;23.352;2023-05-01T02:15:18;94902.34;;;11.19;71.90
41062;BME280;26812;42.662;23.352;2023-05-01T02:17:44;94919.78;;;11.39;71.73
41062;BME280;26812;42.662;23.352;2023-05-01T02:20:11;94936.03;;;11.60;71.09
41062;BME280;26812;42.662;23.352;2023-05-01T02:22:39;94920.56;;;11.31;71.23
41062;BME280;26812;42.662;23.352;2023-05-01T02:25:09;94927.38;;;11.46;71.08
41062;BME280;26812;42.662;23.352;2023-05-01T02:27:39;94892.38;;;11.11;72.53
41062;BME280;26812;42.662;23.352;2023-05-01T02:30:08;94911.09;;;11.16;72.95
41062;BME280;26812;42.662;23.352;2023-05-01T02:32:34;94936.53;;;11.54;71.27
41062;BME280;26812;42.662;23.352;2023-05-01T02:35:00;94931.97;;;11.45;71.00
41062;BME280;26812;42.662;23.352;2023-05-01T02:37:26;94896.53;;;10.83;72.49
41062;BME280;26812;42.662;23.352;2023-05-01T02:39:52;94932.97;;;11.15;72.98
41062;BME280;26812;42.662;23.352;2023-05-01T02:42:20;94918.25;;;11.04;72.98
41062;BME280;26812;42.662;23.352;2023-05-01T02:44:56;94937.84;;;11.39;71.01
41062;BME280;26812;42.662;23.352;2023-05-01T02:47:23;94928.53;;;11.02;71.58
41062;BME280;26812;42.662;23.352;2023-05-01T02:49:51;94927.28;;;10.99;71.84
41062;BME280;26812;42.662;23.352;2023-05-01T02:52:19;94893.84;;;10.48;72.84
41062;BME280;26812;42.662;23.352;2023-05-01T02:54:47;94914.88;;;10.38;74.78
41062;BME280;26812;42.662;23.352;2023-05-01T02:57:15;94936.63;;;10.58;74.86
41062;BME280;26812;42.662;23.352;2023-05-01T02:59:41;94931.72;;;10.61;74.89
41062;BME280;26812;42.662;23.352;2023-05-01T03:02:06;94936.63;;;10.67;75.07
41062;BME280;26812;42.662;23.352;2023-05-01T03:04:32;94934.44;;;11.04;73.70
41062;BME280;26812;42.662;23.352;2023-05-01T03:06:57;94930.63;;;10.87;73.54
41062;BME280;26812;42.662;23.352;2023-05-01T03:09:23;94939.63;;;10.57;75.51
41062;BME280;26812;42.662;23.352;2023-05-01T03:11:48;94929.63;;;10.40;75.67
41062;BME280;26812;42.662;23.352;2023-05-01T03:14:13;94939.91;;;10.30;76.37
41062;BME280;26812;42.662;23.352;2023-05-01T03:16:39;94934.22;;;10.40;77.07
41062;BME280;26812;42.662;23.352;2023-05-01T03:19:05;94934.09;;;10.62;76.34
41062;BME280;26812;42.662;23.352;2023-05-01T03:21:30;94933.47;;;10.74;75.57
41062;BME280;26812;42.662;23.352;2023-05-01T03:23:57;94954.38;;;10.94;74.41
41062;BME280;26812;42.662;23.352;2023-05-01T03:26:22;94911.59;;;10.58;74.55
41062;BME280;26812;42.662;23.352;2023-05-01T03:28:47;94956.91;;;10.65;75.45
41062;BME280;26812;42.662;23.352;2023-05-01T03:31:13;94916.16;;;10.32;76.10
41062;BME280;26812;42.662;23.352;2023-05-01T03:33:39;94965.16;;;10.68;76.02
41062;BME280;26812;42.662;23.352;2023-05-01T03:36:05;94952.34;;;10.74;75.30
41062;BME280;26812;42.662;23.352;2023-05-01T03:38:31;94967.25;;;10.88;75.09
41062;BME280;26812;42.662;23.352;2023-05-01T03:40:57;94959.63;;;10.82;75.15
41062;BME280;26812;42.662;23.352;2023-05-01T03:43:23;94965.66;;;10.79;75.28
41062;BME280;26812;42.662;23.352;2023-05-01T03:45:49;94969.63;;;10.90;75.01
41062;BME280;26812;42.662;23.352;2023-05-01T03:48:15;94965.66;;;10.87;75.20
41062;BME280;26812;42.662;23.352;2023-05-01T03:50:41;94962.31;;;10.82;74.74
41062;BME280;26812;42.662;23.352;2023-05-01T03:53:07;94986.75;;;11.03;75.32
41062;BME280;26812;42.662;23.352;2023-05-01T03:55:32;94970.88;;;11.27;72.80
41062;BME280;26812;42.662;23.352;2023-05-01T03:57:58;94976.25;;;11.01;72.89
41062;BME280;26812;42.662;23.352;2023-05-01T04:00:23;94993.41;;;11.05;73.14
41062;BME280;26812;42.662;23.352;2023-05-01T04:02:49;94986.91;;;10.72;74.63
41062;BME280;26812;42.662;23.352;2023-05-01T04:05:14;94960.50;;;10.25;76.47
41062;BME280;26812;42.662;23.352;2023-05-01T04:07:40;94984.00;;;10.68;76.18
41062;BME280;26812;42.662;23.352;2023-05-01T04:10:06;94978.81;;;10.72;75.05
41062;BME280;26812;42.662;23.352;2023-05-01T04:12:34;94995.09;;;10.58;75.77
41062;BME280;26812;42.662;23.352;2023-05-01T04:14:59;94973.03;;;10.39;76.83
41062;BME280;26812;42.662;23.352;2023-05-01T04:17:25;94983.38;;;10.54;76.83
41062;BME280;26812;42.662;23.352;2023-05-01T04:19:50;94991.19;;;10.90;75.07
41062;BME280;26812;42.662;23.352;2023-05-01T04:22:16;94984.69;;;10.91;74.18
41062;BME280;26812;42.662;23.352;2023-05-01T04:24:42;94982.63;;;10.79;75.13
41062;BME280;26812;42.662;23.352;2023-05-01T04:27:07;94988.66;;;10.76;75.43
41062;BME280;26812;42.662;23.352;2023-05-01T04:29:33;94986.91;;;10.72;76.37
41062;BME280;26812;42.662;23.352;2023-05-01T04:31:58;94981.97;;;10.91;76.04
41062;BME280;26812;42.662;23.352;2023-05-01T04:34:24;94988.47;;;10.99;75.47
41062;BME280;26812;42.662;23.352;2023-05-01T04:36:49;94987.72;;;11.07;75.46
41062;BME280;26812;42.662;23.352;2023-05-01T04:39:16;94985.47;;;11.26;75.54
41062;BME280;26812;42.662;23.352;2023-05-01T04:41:41;94991.31;;;11.28;74.54
41062;BME280;26812;42.662;23.352;2023-05-01T04:44:06;94962.94;;;11.22;74.54
41062;BME280;26812;42.662;23.352;2023-05-01T04:46:32;95007.81;;;11.52;73.98
41062;BME280;26812;42.662;23.352;2023-05-01T04:48:57;94994.28;;;11.61;73.51
41062;BME280;26812;42.662;23.352;2023-05-01T04:51:23;94978.66;;;12.01;73.50
41062;BME280;26812;42.662;23.352;2023-05-01T04:53:48;95003.19;;;12.26;70.55
41062;BME280;26812;42.662;23.352;2023-05-01T04:56:13;94995.69;;;12.61;69.84
41062;BME280;26812;42.662;23.352;2023-05-01T04:58:39;94999.34;;;12.86;68.40
41062;BME280;26812;42.662;23.352;2023-05-01T05:01:04;95008.66;;;12.97;67.43
41062;BME280;26812;42.662;23.352;2023-05-01T05:03:30;95013.16;;;13.34;66.79
41062;BME280;26812;42.662;23.352;2023-05-01T05:05:55;95006.75;;;13.72;65.50
41062;BME280;26812;42.662;23.352;2023-05-01T05:08:20;94990.25;;;13.98;63.08
41062;BME280;26812;42.662;23.352;2023-05-01T05:10:46;95029.56;;;14.28;62.33
41062;BME280;26812;42.662;23.352;2023-05-01T05:13:11;95021.78;;;14.15;62.40
41062;BME280;26812;42.662;23.352;2023-05-01T05:15:37;95013.59;;;14.03;62.66
41062;BME280;26812;42.662;23.352;2023-05-01T05:18:02;95021.94;;;13.97;62.90
41062;BME280;26812;42.662;23.352;2023-05-01T05:20:28;95037.75;;;14.41;61.65
41062;BME280;26812;42.662;23.352;2023-05-01T05:22:53;94999.31;;;14.39;60.63
41062;BME280;26812;42.662;23.352;2023-05-01T05:25:18;95038.09;;;14.51;60.93
41062;BME280;26812;42.662;23.352;2023-05-01T05:27:44;95043.75;;;14.46;61.29
41062;BME280;26812;42.662;23.352;2023-05-01T05:30:10;95046.22;;;14.51;61.66
41062;BME280;26812;42.662;23.352;2023-05-01T05:32:35;95048.97;;;14.76;61.50
41062;BME280;26812;42.662;23.352;2023-05-01T05:35:02;95031.66;;;14.80;60.81
41062;BME280;26812;42.662;23.352;2023-05-01T05:37:27;95040.81;;;15.00;60.82
41062;BME280;26812;42.662;23.352;2023-05-01T05:39:53;95037.38;;;15.15;59.71
41062;BME280;26812;42.662;23.352;2023-05-01T05:42:18;95032.13;;;15.35;59.21
41062;BME280;26812;42.662;23.352;2023-05-01T05:44:44;95033.66;;;15.48;58.31
41062;BME280;26812;42.662;23.352;2023-05-01T05:47:09;95053.47;;;15.48;58.19
41062;BME280;26812;42.662;23.352;2023-05-01T05:49:35;95052.34;;;15.49;58.07
41062;BME280;26812;42.662;23.352;2023-05-01T05:52:00;95045.56;;;15.43;57.95
41062;BME280;26812;42.662;23.352;2023-05-01T05:54:26;95048.59;;;15.66;58.20
41062;BME280;26812;42.662;23.352;2023-05-01T05:56:51;95002.19;;;15.59;57.22
41062;BME280;26812;42.662;23.352;2023-05-01T05:59:16;95060.16;;;16.07;56.31
41062;BME280;26812;42.662;23.352;2023-05-01T06:01:43;95061.13;;;15.99;56.79
41062;BME280;26812;42.662;23.352;2023-05-01T06:04:08;95050.34;;;16.18;57.02
41062;BME280;26812;42.662;23.352;2023-05-01T06:06:35;95069.97;;;16.55;56.48
41062;BME280;26812;42.662;23.352;2023-05-01T06:09:01;95062.00;;;16.78;55.41
41062;BME280;26812;42.662;23.352;2023-05-01T06:11:27;95062.44;;;16.80;55.19
41062;BME280;26812;42.662;23.352;2023-05-01T06:13:52;95061.25;;;17.13;54.02
41062;BME280;26812;42.662;23.352;2023-05-01T06:16:18;95069.63;;;17.39;52.99
41062;BME280;26812;42.662;23.352;2023-05-01T06:18:43;95065.13;;;17.47;52.63
41062;BME280;26812;42.662;23.352;2023-05-01T06:21:09;95064.44;;;17.34;52.25
41062;BME280;26812;42.662;23.352;2023-05-01T06:23:34;95061.88;;;17.41;52.56
41062;BME280;26812;42.662;23.352;2023-05-01T06:26:00;95063.56;;;17.46;51.47
41062;BME280;26812;42.662;23.352;2023-05-01T06:28:25;95063.78;;;17.21;52.57
41062;BME280;26812;42.662;23.352;2023-05-01T06:30:51;95067.88;;;16.64;53.42
41062;BME280;26812;42.662;23.352;2023-05-01T06:33:16;95061.97;;;16.62;54.10
41062;BME280;26812;42.662;23.352;2023-05-01T06:35:41;95062.78;;;16.94;54.71
41062;BME280;26812;42.662;23.352;2023-05-01T06:38:07;95064.03;;;17.32;53.45
41062;BME280;26812;42.662;23.352;2023-05-01T06:40:32;95053.44;;;17.65;52.04
41062;BME280;26812;42.662;23.352;2023-05-01T06:43:01;95047.72;;;17.71;50.74
41062;BME280;26812;42.662;23.352;2023-05-01T06:45:26;95055.50;;;17.88;51.36
41062;BME280;26812;42.662;23.352;2023-05-01T06:47:52;95062.78;;;18.03;50.16
41062;BME280;26812;42.662;23.352;2023-05-01T06:50:18;95034.47;;;17.88;49.69
41062;BME280;26812;42.662;23.352;2023-05-01T06:52:43;95056.88;;;18.20;49.36
41062;BME280;26812;42.662;23.352;2023-05-01T06:55:09;95026.97;;;18.05;50.60
41062;BME280;26812;42.662;23.352;2023-05-01T06:57:34;95048.84;;;18.50;49.80
41062;BME280;26812;42.662;23.352;2023-05-01T06:59:59;95045.75;;;18.71;48.46
41062;BME280;26812;42.662;23.352;2023-05-01T07:02:25;95048.47;;;18.29;48.93
41062;BME280;26812;42.662;23.352;2023-05-01T07:04:51;95035.75;;;17.75;49.67
41062;BME280;26812;42.662;23.352;2023-05-01T07:07:17;95067.34;;;17.76;50.28
41062;BME280;26812;42.662;23.352;2023-05-01T07:09:42;95056.72;;;17.90;50.38
41062;BME280;26812;42.662;23.352;2023-05-01T07:12:08;95050.84;;;18.30;49.86
41062;BME280;26812;42.662;23.352;2023-05-01T07:14:34;95058.22;;;18.72;49.21
41062;BME280;26812;42.662;23.352;2023-05-01T07:16:59;95061.00;;;18.99;47.53
41062;BME280;26812;42.662;23.352;2023-05-01T07:19:25;95077.59;;;19.39;47.95
41062;BME280;26812;42.662;23.352;2023-05-01T07:21:51;95068.88;;;19.57;46.46
41062;BME280;26812;42.662;23.352;2023-05-01T07:24:16;95055.50;;;19.51;45.94
41062;BME280;26812;42.662;23.352;2023-05-01T07:26:42;95066.44;;;19.51;46.67
41062;BME280;26812;42.662;23.352;2023-05-01T07:29:07;95046.75;;;19.65;46.45
41062;BME280;26812;42.662;23.352;2023-05-01T07:31:33;95054.78;;;19.84;45.36
41062;BME280;26812;42.662;23.352;2023-05-01T07:33:58;95058.97;;;19.75;45.44
41062;BME280;26812;42.662;23.352;2023-05-01T07:36:23;95049.31;;;19.54;44.58
41062;BME280;26812;42.662;23.352;2023-05-01T07:38:49;95068.28;;;19.17;46.10
41062;BME280;26812;42.662;23.352;2023-05-01T07:41:14;95069.16;;;19.78;46.72
41062;BME280;26812;42.662;23.352;2023-05-01T07:43:40;95068.56;;;19.92;45.51
41062;BME280;26812;42.662;23.352;2023-05-01T07:46:05;95064.66;;;20.26;45.05
41062;BME280;26812;42.662;23.352;2023-05-01T07:48:37;95070.03;;;20.53;43.75
41062;BME280;26812;42.662;23.352;2023-05-01T07:51:02;95055.56;;;20.52;43.61
41062;BME280;26812;42.662;23.352;2023-05-01T07:53:28;95064.75;;;20.77;43.03
41062;BME280;26812;42.662;23.352;2023-05-01T07:55:53;95032.03;;;20.92;42.48
41062;BME280;26812;42.662;23.352;2023-05-01T07:58:19;95067.75;;;21.61;42.12
41062;BME280;26812;42.662;23.352;2023-05-01T08:00:44;95032.53;;;21.70;40.87
41062;BME280;26812;42.662;23.352;2023-05-01T08:03:11;95039.56;;;21.67;40.37
41062;BME280;26812;42.662;23.352;2023-05-01T08:05:40;95032.56;;;21.74;39.71
41062;BME280;26812;42.662;23.352;2023-05-01T08:08:06;95043.31;;;22.07;39.96
41062;BME280;26812;42.662;23.352;2023-05-01T08:10:31;95076.72;;;22.38;39.45
41062;BME280;26812;42.662;23.352;2023-05-01T08:12:56;95079.59;;;23.02;38.42
41062;BME280;26812;42.662;23.352;2023-05-01T08:15:22;95040.34;;;22.98;36.78
41062;BME280;26812;42.662;23.352;2023-05-01T08:17:48;95044.25;;;22.89;37.61
41062;BME280;26812;42.662;23.352;2023-05-01T08:20:15;95060.34;;;23.16;36.58
41062;BME280;26812;42.662;23.352;2023-05-01T08:22:40;95062.25;;;23.47;35.21
41062;BME280;26812;42.662;23.352;2023-05-01T08:25:06;95069.75;;;23.43;35.20
41062;BME280;26812;42.662;23.352;2023-05-01T08:27:32;95052.88;;;23.38;33.82
41062;BME280;26812;42.662;23.352;2023-05-01T08:29:58;95057.19;;;23.24;33.19
41062;BME280;26812;42.662;23.352;2023-05-01T08:32:23;95047.38;;;23.20;33.54
41062;BME280;26812;42.662;23.352;2023-05-01T08:34:56;95070.50;;;23.54;33.98
41062;BME280;26812;42.662;23.352;2023-05-01T08:37:21;95065.28;;;23.99;33.68
41062;BME280;26812;42.662;23.352;2023-05-01T08:39:46;95020.53;;;23.88;32.90
41062;BME280;26812;42.662;23.352;2023-05-01T08:42:12;95027.56;;;23.96;33.29
41062;BME280;26812;42.662;23.352;2023-05-01T08:44:37;95046.56;;;23.37;33.17
41062;BME280;26812;42.662;23.352;2023-05-01T08:47:10;95061.13;;;23.34;34.30
41062;BME280;26812;42.662;23.352;2023-05-01T08:49:40;95062.53;;;23.99;33.19
41062;BME280;26812;42.662;23.352;2023-05-01T08:52:06;95054.63;;;24.08;33.56
41062;BME280;26812;42.662;23.352;2023-05-01T08:54:34;95067.56;;;24.22;32.12
41062;BME280;26812;42.662;23.352;2023-05-01T08:57:01;95062.91;;;24.08;33.26
41062;BME280;26812;42.662;23.352;2023-05-01T08:59:34;95033.50;;;23.91;32.89
41062;BME280;26812;42.662;23.352;2023-05-01T09:02:00;95060.94;;;24.05;32.68
41062;BME280;26812;42.662;23.352;2023-05-01T09:04:31;95055.84;;;24.04;33.31
41062;BME280;26812;42.662;23.352;2023-05-01T09:06:58;95031.88;;;24.01;34.18
41062;BME280;26812;42.662;23.352;2023-05-01T09:09:27;95029.00;;;24.29;32.25
41062;BME280;26812;42.662;23.352;2023-05-01T09:11:55;95051.84;;;24.89;31.96
41062;BME280;26812;42.662;23.352;2023-05-01T09:14:21;95016.09;;;24.78;31.75
41062;BME280;26812;42.662;23.352;2023-05-01T09:16:47;94986.19;;;24.21;30.87
41062;BME280;26812;42.662;23.352;2023-05-01T09:19:13;95039.88;;;23.63;32.63
41062;BME280;26812;42.662;23.352;2023-05-01T09:21:39;95032.38;;;22.32;32.45
41062;BME280;26812;42.662;23.352;2023-05-01T09:24:04;95035.13;;;22.32;34.06
41062;BME280;26812;42.662;23.352;2023-05-01T09:26:30;95035.19;;;23.42;32.97
41062;BME280;26812;42.662;23.352;2023-05-01T09:28:58;95022.56;;;23.52;32.35
41062;BME280;26812;42.662;23.352;2023-05-01T09:31:26;95020.59;;;23.70;33.05
41062;BME280;26812;42.662;23.352;2023-05-01T09:34:00;95054.34;;;23.89;33.38
41062;BME280;26812;42.662;23.352;2023-05-01T09:36:27;95044.47;;;23.98;33.02
41062;BME280;26812;42.662;23.352;2023-05-01T09:38:55;95022.56;;;23.73;34.25
41062;BME280;26812;42.662;23.352;2023-05-01T09:41:21;95041.44;;;24.55;33.30
41062;BME280;26812;42.662;23.352;2023-05-01T09:43:51;95040.09;;;24.81;32.92
41062;BME280;26812;42.662;23.352;2023-05-01T09:46:17;95044.53;;;24.64;32.87
41062;BME280;26812;42.662;23.352;2023-05-01T09:49:00;95054.25;;;24.83;33.23
41062;BME280;26812;42.662;23.352;2023-05-01T09:51:29;95048.25;;;24.36;33.10
41062;BME280;26812;42.662;23.352;2023-05-01T09:53:59;95043.63;;;24.12;32.58
41062;BME280;26812;42.662;23.352;2023-05-01T09:56:32;95050.56;;;24.41;33.18
41062;BME280;26812;42.662;23.352;2023-05-01T09:59:14;95044.81;;;24.77;33.35
41062;BME280;26812;42.662;23.352;2023-05-01T10:01:42;95042.28;;;25.04;32.46
41062;BME280;26812;42.662;23.352;2023-05-01T10:04:08;95031.94;;;25.19;32.03
41062;BME280;26812;42.662;23.352;2023-05-01T10:06:34;95025.94;;;25.65;31.45
41062;BME280;26812;42.662;23.352;2023-05-01T10:09:01;95025.00;;;25.82;31.52
41062;BME280;26812;42.662;23.352;2023-05-01T10:11:27;95021.19;;;25.73;30.67
41062;BME280;26812;42.662;23.352;2023-05-01T10:14:04;95031.00;;;26.08;29.81
41062;BME280;26812;42.662;23.352;2023-05-01T10:16:33;95019.00;;;26.21;29.46
41062;BME280;26812;42.662;23.352;2023-05-01T10:18:59;95026.41;;;25.60;30.20
41062;BME280;26812;42.662;23.352;2023-05-01T10:21:32;95039.19;;;25.43;30.66
41062;BME280;26812;42.662;23.352;2023-05-01T10:24:00;95006.47;;;25.04;28.94
41062;BME280;26812;42.662;23.352;2023-05-01T10:26:27;95031.06;;;25.29;29.78
41062;BME280;26812;42.662;23.352;2023-05-01T10:28:54;95012.94;;;25.28;30.05
41062;BME280;26812;42.662;23.352;2023-05-01T10:31:19;95011.56;;;24.54;31.82
41062;BME280;26812;42.662;23.352;2023-05-01T10:33:45;95021.59;;;25.30;30.02
41062;BME280;26812;42.662;23.352;2023-05-01T10:38:49;95000.97;;;26.13;28.41
41062;BME280;26812;42.662;23.352;2023-05-01T10:41:14;95016.41;;;25.77;27.38
41062;BME280;26812;42.662;23.352;2023-05-01T10:43:43;94990.00;;;25.76;27.06
41062;BME280;26812;42.662;23.352;2023-05-01T10:51:16;95002.53;;;26.14;27.25
41062;BME280;26812;42.662;23.352;2023-05-01T10:53:43;95007.16;;;25.90;26.55
41062;BME280;26812;42.662;23.352;2023-05-01T11:01:33;95030.84;;;23.45;31.51
41062;BME280;26812;42.662;23.352;2023-05-01T11:06:36;94988.41;;;22.04;34.49
41062;BME280;26812;42.662;23.352;2023-05-01T11:09:44;95024.59;;;22.55;34.09
41062;BME280;26812;42.662;23.352;2023-05-01T11:12:12;95002.97;;;22.29;33.83
41062;BME280;26812;42.662;23.352;2023-05-01T11:17:46;95031.16;;;22.12;33.66
41062;BME280;26812;42.662;23.352;2023-05-01T11:22:50;95016.34;;;22.62;34.51
41062;BME280;26812;42.662;23.352;2023-05-01T11:25:21;95006.16;;;22.56;33.92
41062;BME280;26812;42.662;23.352;2023-05-01T11:27:55;95009.28;;;22.61;33.41
41062;BME280;26812;42.662;23.352;2023-05-01T11:30:21;95000.69;;;22.67;34.03
41062;BME280;26812;42.662;23.352;2023-05-01T11:32:48;95024.22;;;22.78;33.18
41062;BME280;26812;42.662;23.352;2023-05-01T11:35:26;95011.63;;;22.38;32.97
41062;BME280;26812;42.662;23.352;2023-05-01T11:37:52;95010.06;;;22.55;32.68
41062;BME280;26812;42.662;23.352;2023-05-01T11:40:31;95021.78;;;22.34;33.23
41062;BME280;26812;42.662;23.352;2023-05-01T11:45:29;95007.84;;;21.63;34.74
41062;BME280;26812;42.662;23.352;2023-05-01T11:47:55;95002.72;;;21.54;35.02
41062;BME280;26812;42.662;23.352;2023-05-01T11:50:21;95001.97;;;21.64;33.97
41062;BME280;26812;42.662;23.352;2023-05-01T11:52:50;94976.78;;;21.41;34.21
41062;BME280;26812;42.662;23.352;2023-05-01T11:55:19;94991.91;;;21.97;33.65
41062;BME280;26812;42.662;23.352;2023-05-01T11:57:50;95014.69;;;22.05;34.18
41062;BME280;26812;42.662;23.352;2023-05-01T12:03:13;95020.97;;;22.05;32.88
41062;BME280;26812;42.662;23.352;2023-05-01T12:05:41;95022.66;;;22.77;32.38
41062;BME280;26812;42.662;23.352;2023-05-01T12:08:16;95022.97;;;22.33;32.44
41062;BME280;26812;42.662;23.352;2023-05-01T12:10:43;95013.25;;;23.07;32.28
41062;BME280;26812;42.662;23.352;2023-05-01T12:13:12;95005.38;;;23.27;30.19
41062;BME280;26812;42.662;23.352;2023-05-01T12:15:42;95028.16;;;23.13;29.48
41062;BME280;26812;42.662;23.352;2023-05-01T12:18:08;95028.13;;;22.63;30.10
41062;BME280;26812;42.662;23.352;2023-05-01T12:20:41;94991.19;;;22.11;30.38
41062;BME280;26812;42.662;23.352;2023-05-01T12:23:08;95029.69;;;22.53;30.75
41062;BME280;26812;42.662;23.352;2023-05-01T12:25:38;95025.06;;;21.63;31.88
41062;BME280;26812;42.662;23.352;2023-05-01T12:28:09;95030.13;;;21.58;32.05
41062;BME280;26812;42.662;23.352;2023-05-01T12:30:36;95011.28;;;20.87;32.12
41062;BME280;26812;42.662;23.352;2023-05-01T12:33:09;95038.91;;;20.71;33.03
41062;BME280;26812;42.662;23.352;2023-05-01T12:35:36;95037.78;;;20.39;33.15
41062;BME280;26812;42.662;23.352;2023-05-01T12:38:13;95017.72;;;20.65;32.24
41062;BME280;26812;42.662;23.352;2023-05-01T12:40:56;95024.13;;;20.39;32.90
41062;BME280;26812;42.662;23.352;2023-05-01T12:43:36;95010.88;;;20.41;33.32
41062;BME280;26812;42.662;23.352;2023-05-01T12:49:41;94937.09;;;20.11;35.96
41062;BME280;26812;42.662;23.352;2023-05-01T12:52:07;95038.31;;;20.96;34.24
41062;BME280;26812;42.662;23.352;2023-05-01T12:54:33;95037.72;;;20.69;34.90
41062;BME280;26812;42.662;23.352;2023-05-01T12:57:09;95023.84;;;20.95;34.46
41062;BME280;26812;42.662;23.352;2023-05-01T13:00:16;94968.66;;;20.01;34.11
41062;BME280;26812;42.662;23.352;2023-05-01T13:02:43;95002.41;;;20.20;35.29
41062;BME280;26812;42.662;23.352;2023-05-01T13:05:10;95013.94;;;20.36;36.03
41062;BME280;26812;42.662;23.352;2023-05-01T13:07:39;95022.09;;;20.32;34.59
41062;BME280;26812;42.662;23.352;2023-05-01T13:10:05;94996.50;;;20.14;35.89
41062;BME280;26812;42.662;23.352;2023-05-01T13:12:31;95035.00;;;20.32;35.14
41062;BME280;26812;42.662;23.352;2023-05-01T13:14:58;95033.84;;;20.33;35.17
41062;BME280;26812;42.662;23.352;2023-05-01T13:17:29;95029.88;;;20.67;35.67
41062;BME280;26812;42.662;23.352;2023-05-01T13:19:59;95024.44;;;21.22;36.37
41062;BME280;26812;42.662;23.352;2023-05-01T13:22:29;95042.41;;;21.16;36.17
41062;BME280;26812;42.662;23.352;2023-05-01T13:24:55;95036.28;;;20.86;36.62
41062;BME280;26812;42.662;23.352;2023-05-01T13:27:21;94988.78;;;20.64;36.13
41062;BME280;26812;42.662;23.352;2023-05-01T13:29:55;95006.06;;;20.31;37.09
41062;BME280;26812;42.662;23.352;2023-05-01T13:32:23;95022.59;;;20.82;36.86
41062;BME280;26812;42.662;23.352;2023-05-01T13:34:49;95050.91;;;20.56;37.64
41062;BME280;26812;42.662;23.352;2023-05-01T13:37:15;95065.41;;;20.60;37.51